CYWG/YWG METAR and TAF weather

Enter ICAO airport designator
Station Type Date Time Source
CYWG METAR 2020/02/20 22:00 UTC NOAA

CYWG 202200Z 19018KT 15SM FEW250 M09/M13 A3022 RMK CI1 SLP258


Station Type Date Time Source
CYWG Decoded METAR 2020/02/20 22:00 UTC NOAA

Winnipeg Int. Airportman., Canada (CYWG) 49-54N 097-14W 239M
Feb 20, 2020 - 05:00 PM EST / 2020.02.20 2200 UTC
Wind: from the S (190 degrees) at 21 MPH (18 KT):0
Visibility: 15 mile(s):0
Sky conditions: mostly clear
Temperature: 15 F (-9 C)
Windchill: -2 F (-19 C):1
Dew Point: 8 F (-13 C)
Relative Humidity: 72%
Pressure (altimeter): 30.22 in. Hg (1023 hPa)
ob: CYWG 202200Z 19018KT 15SM FEW250 M09/M13 A3022 RMK CI1 SLP258
cycle: 22

Station Type Date Time Source
CYWG TAF 2020/02/20 18:39 UTC NOAA

TAF CYWG 201738Z 2018/2118 19018KT P6SM SKC
BECMG 2110/2112 26015KT
RMK NXT FCST BY 210000Z

Example: see airport list